sensor_id;sensor_type;location;lat;lon;timestamp;temperature;humidity
22742;DHT22;11538;48.884;8.696;2023-07-24T00:00:29;19.00;99.90
22742;DHT22;11538;48.884;8.696;2023-07-24T00:02:55;19.00;99.90
22742;DHT22;11538;48.884;8.696;2023-07-24T00:05:23;19.00;99.90
22742;DHT22;11538;48.884;8.696;2023-07-24T00:07:50;19.10;99.90
22742;DHT22;11538;48.884;8.696;2023-07-24T00:10:17;19.10;99.90
22742;DHT22;11538;48.884;8.696;2023-07-24T00:12:44;19.10;99.90
22742;DHT22;11538;48.884;8.696;2023-07-24T00:15:11;19.10;99.90
22742;DHT22;11538;48.884;8.696;2023-07-24T00:17:38;19.20;99.90
22742;DHT22;11538;48.884;8.696;2023-07-24T00:20:05;19.20;99.90
22742;DHT22;11538;48.884;8.696;2023-07-24T00:22:33;19.20;99.90
22742;DHT22;11538;48.884;8.696;2023-07-24T00:24:59;19.30;99.90
22742;DHT22;11538;48.884;8.696;2023-07-24T00:27:26;19.30;99.90
22742;DHT22;11538;48.884;8.696;2023-07-24T00:29:54;19.30;99.90
22742;DHT22;11538;48.884;8.696;2023-07-24T00:32:20;19.40;99.90
22742;DHT22;11538;48.884;8.696;2023-07-24T00:34:47;19.40;99.90
22742;DHT22;11538;48.884;8.696;2023-07-24T00:37:14;19.40;99.90
22742;DHT22;11538;48.884;8.696;2023-07-24T00:39:41;19.30;99.90
22742;DHT22;11538;48.884;8.696;2023-07-24T00:42:08;19.30;99.90
22742;DHT22;11538;48.884;8.696;2023-07-24T00:44:35;19.40;99.90
22742;DHT22;11538;48.884;8.696;2023-07-24T00:47:03;19.40;99.90
22742;DHT22;11538;48.884;8.696;2023-07-24T00:49:31;19.40;99.90
22742;DHT22;11538;48.884;8.696;2023-07-24T00:51:58;19.40;99.90
22742;DHT22;11538;48.884;8.696;2023-07-24T00:54:25;19.40;99.90
22742;DHT22;11538;48.884;8.696;2023-07-24T00:56:57;19.30;99.90
22742;DHT22;11538;48.884;8.696;2023-07-24T00:59:24;19.30;99.90
22742;DHT22;11538;48.884;8.696;2023-07-24T01:01:51;19.30;99.90
22742;DHT22;11538;48.884;8.696;2023-07-24T01:04:18;19.30;99.90
22742;DHT22;11538;48.884;8.696;2023-07-24T01:06:46;19.30;99.90
22742;DHT22;11538;48.884;8.696;2023-07-24T01:09:13;19.30;99.90
22742;DHT22;11538;48.884;8.696;2023-07-24T01:11:47;19.30;99.90
22742;DHT22;11538;48.884;8.696;2023-07-24T01:14:20;19.20;99.90
22742;DHT22;11538;48.884;8.696;2023-07-24T01:16:49;19.20;99.90
22742;DHT22;11538;48.884;8.696;2023-07-24T01:27:44;19.10;99.90
22742;DHT22;11538;48.884;8.696;2023-07-24T01:30:13;19.10;99.90
22742;DHT22;11538;48.884;8.696;2023-07-24T01:32:59;19.10;99.90
22742;DHT22;11538;48.884;8.696;2023-07-24T01:35:26;19.00;99.90
22742;DHT22;11538;48.884;8.696;2023-07-24T01:37:55;19.00;99.90
22742;DHT22;11538;48.884;8.696;2023-07-24T01:40:22;19.00;99.90
22742;DHT22;11538;48.884;8.696;2023-07-24T01:42:50;19.00;99.90
22742;DHT22;11538;48.884;8.696;2023-07-24T01:45:17;19.00;99.90
22742;DHT22;11538;48.884;8.696;2023-07-24T01:47:44;19.00;99.90
22742;DHT22;11538;48.884;8.696;2023-07-24T01:50:11;19.00;99.90
22742;DHT22;11538;48.884;8.696;2023-07-24T01:52:38;19.00;99.90
22742;DHT22;11538;48.884;8.696;2023-07-24T01:55:05;19.00;99.90
22742;DHT22;11538;48.884;8.696;2023-07-24T01:57:32;19.00;99.90
22742;DHT22;11538;48.884;8.696;2023-07-24T01:59:59;19.00;99.90
22742;DHT22;11538;48.884;8.696;2023-07-24T02:02:26;19.00;99.90
22742;DHT22;11538;48.884;8.696;2023-07-24T02:04:53;19.00;99.90
22742;DHT22;11538;48.884;8.696;2023-07-24T02:07:20;19.00;99.90
22742;DHT22;11538;48.884;8.696;2023-07-24T02:09:47;19.00;99.90
22742;DHT22;11538;48.884;8.696;2023-07-24T02:12:14;18.90;99.90
22742;DHT22;11538;48.884;8.696;2023-07-24T02:14:43;18.90;99.90
22742;DHT22;11538;48.884;8.696;2023-07-24T02:17:10;18.90;99.90
22742;DHT22;11538;48.884;8.696;2023-07-24T02:19:36;18.90;99.90
22742;DHT22;11538;48.884;8.696;2023-07-24T02:22:03;18.90;99.90
22742;DHT22;11538;48.884;8.696;2023-07-24T02:24:30;18.90;99.90
22742;DHT22;11538;48.884;8.696;2023-07-24T02:26:57;18.90;99.90
22742;DHT22;11538;48.884;8.696;2023-07-24T02:29:24;18.80;99.90
22742;DHT22;11538;48.884;8.696;2023-07-24T02:31:52;18.80;99.90
22742;DHT22;11538;48.884;8.696;2023-07-24T02:34:21;18.80;99.90
22742;DHT22;11538;48.884;8.696;2023-07-24T02:36:52;18.80;99.90
22742;DHT22;11538;48.884;8.696;2023-07-24T02:39:20;18.70;99.90
22742;DHT22;11538;48.884;8.696;2023-07-24T02:41:47;18.70;99.90
22742;DHT22;11538;48.884;8.696;2023-07-24T02:44:15;18.70;99.90
22742;DHT22;11538;48.884;8.696;2023-07-24T02:46:42;18.70;99.90
22742;DHT22;11538;48.884;8.696;2023-07-24T02:49:09;18.70;99.90
22742;DHT22;11538;48.884;8.696;2023-07-24T02:51:36;18.70;99.90
22742;DHT22;11538;48.884;8.696;2023-07-24T02:54:02;18.70;99.90
22742;DHT22;11538;48.884;8.696;2023-07-24T02:56:29;18.70;99.90
22742;DHT22;11538;48.884;8.696;2023-07-24T02:58:57;18.70;99.90
22742;DHT22;11538;48.884;8.696;2023-07-24T03:01:25;18.70;99.90
22742;DHT22;11538;48.884;8.696;2023-07-24T03:03:52;18.70;99.90
22742;DHT22;11538;48.884;8.696;2023-07-24T03:06:19;18.60;99.90
22742;DHT22;11538;48.884;8.696;2023-07-24T03:08:46;18.70;99.90
22742;DHT22;11538;48.884;8.696;2023-07-24T03:11:12;18.60;99.90
22742;DHT22;11538;48.884;8.696;2023-07-24T03:13:39;18.70;99.90
22742;DHT22;11538;48.884;8.696;2023-07-24T03:16:07;18.60;99.90
22742;DHT22;11538;48.884;8.696;2023-07-24T03:18:34;18.60;99.90
22742;DHT22;11538;48.884;8.696;2023-07-24T03:21:01;18.50;99.90
22742;DHT22;11538;48.884;8.696;2023-07-24T03:23:29;18.50;99.90
22742;DHT22;11538;48.884;8.696;2023-07-24T03:25:56;18.50;99.90
22742;DHT22;11538;48.884;8.696;2023-07-24T03:28:23;18.40;99.90
22742;DHT22;11538;48.884;8.696;2023-07-24T03:30:51;18.40;99.90
22742;DHT22;11538;48.884;8.696;2023-07-24T03:33:18;18.50;99.90
22742;DHT22;11538;48.884;8.696;2023-07-24T03:35:44;18.50;99.90
22742;DHT22;11538;48.884;8.696;2023-07-24T03:38:11;18.50;99.90
22742;DHT22;11538;48.884;8.696;2023-07-24T03:40:38;18.50;99.90
22742;DHT22;11538;48.884;8.696;2023-07-24T03:43:05;18.40;99.90
22742;DHT22;11538;48.884;8.696;2023-07-24T03:45:32;18.40;99.90
22742;DHT22;11538;48.884;8.696;2023-07-24T03:47:59;18.40;99.90
22742;DHT22;11538;48.884;8.696;2023-07-24T03:50:25;18.40;99.90
22742;DHT22;11538;48.884;8.696;2023-07-24T03:52:52;18.40;99.90
22742;DHT22;11538;48.884;8.696;2023-07-24T03:55:19;18.40;99.90
22742;DHT22;11538;48.884;8.696;2023-07-24T03:57:46;18.40;99.90
22742;DHT22;11538;48.884;8.696;2023-07-24T04:00:13;18.50;99.90
22742;DHT22;11538;48.884;8.696;2023-07-24T04:02:42;18.40;99.90
22742;DHT22;11538;48.884;8.696;2023-07-24T04:05:08;18.50;99.90
22742;DHT22;11538;48.884;8.696;2023-07-24T04:07:35;18.50;99.90
22742;DHT22;11538;48.884;8.696;2023-07-24T04:10:03;18.60;99.90
22742;DHT22;11538;48.884;8.696;2023-07-24T04:12:31;18.60;99.90
22742;DHT22;11538;48.884;8.696;2023-07-24T04:14:58;18.70;99.90
22742;DHT22;11538;48.884;8.696;2023-07-24T04:17:25;18.70;99.90
22742;DHT22;11538;48.884;8.696;2023-07-24T04:19:51;18.70;99.90
22742;DHT22;11538;48.884;8.696;2023-07-24T04:22:18;18.70;99.90
22742;DHT22;11538;48.884;8.696;2023-07-24T04:24:45;18.70;99.90
22742;DHT22;11538;48.884;8.696;2023-07-24T04:27:12;18.80;99.90
22742;DHT22;11538;48.884;8.696;2023-07-24T04:29:39;18.80;99.90
22742;DHT22;11538;48.884;8.696;2023-07-24T04:32:06;18.70;99.90
22742;DHT22;11538;48.884;8.696;2023-07-24T04:34:33;18.70;99.90
22742;DHT22;11538;48.884;8.696;2023-07-24T04:37:00;18.60;99.90
22742;DHT22;11538;48.884;8.696;2023-07-24T04:39:27;18.60;99.90
22742;DHT22;11538;48.884;8.696;2023-07-24T04:41:53;18.60;99.90
22742;DHT22;11538;48.884;8.696;2023-07-24T04:44:20;18.60;99.90
22742;DHT22;11538;48.884;8.696;2023-07-24T04:46:47;18.70;99.90
22742;DHT22;11538;48.884;8.696;2023-07-24T04:49:14;18.80;99.90
22742;DHT22;11538;48.884;8.696;2023-07-24T04:51:41;18.80;99.90
22742;DHT22;11538;48.884;8.696;2023-07-24T04:54:08;18.90;99.90
22742;DHT22;11538;48.884;8.696;2023-07-24T04:56:35;18.90;99.90
22742;DHT22;11538;48.884;8.696;2023-07-24T04:59:02;18.90;99.90
22742;DHT22;11538;48.884;8.696;2023-07-24T05:01:29;18.90;99.90
22742;DHT22;11538;48.884;8.696;2023-07-24T05:03:56;18.90;99.90
22742;DHT22;11538;48.884;8.696;2023-07-24T05:06:23;18.90;99.90
22742;DHT22;11538;48.884;8.696;2023-07-24T05:08:50;18.90;99.90
22742;DHT22;11538;48.884;8.696;2023-07-24T05:11:18;19.00;99.90
22742;DHT22;11538;48.884;8.696;2023-07-24T05:13:45;19.00;99.90
22742;DHT22;11538;48.884;8.696;2023-07-24T05:16:13;19.10;99.90
22742;DHT22;11538;48.884;8.696;2023-07-24T05:18:41;19.10;99.90
22742;DHT22;11538;48.884;8.696;2023-07-24T05:21:07;19.00;99.90
22742;DHT22;11538;48.884;8.696;2023-07-24T05:23:35;19.00;99.90
22742;DHT22;11538;48.884;8.696;2023-07-24T05:26:02;19.00;99.90
22742;DHT22;11538;48.884;8.696;2023-07-24T05:28:31;19.00;99.90
22742;DHT22;11538;48.884;8.696;2023-07-24T05:31:02;19.00;99.90
22742;DHT22;11538;48.884;8.696;2023-07-24T05:33:31;19.00;99.90
22742;DHT22;11538;48.884;8.696;2023-07-24T05:36:02;19.10;99.90
22742;DHT22;11538;48.884;8.696;2023-07-24T05:38:30;19.10;99.90
22742;DHT22;11538;48.884;8.696;2023-07-24T05:40:57;19.10;99.90
22742;DHT22;11538;48.884;8.696;2023-07-24T05:43:25;19.10;99.90
22742;DHT22;11538;48.884;8.696;2023-07-24T05:45:53;19.10;99.90
22742;DHT22;11538;48.884;8.696;2023-07-24T05:48:21;19.10;99.90
22742;DHT22;11538;48.884;8.696;2023-07-24T05:50:48;19.10;99.90
22742;DHT22;11538;48.884;8.696;2023-07-24T05:53:16;19.10;99.90
22742;DHT22;11538;48.884;8.696;2023-07-24T05:55:43;19.20;99.90
22742;DHT22;11538;48.884;8.696;2023-07-24T05:58:11;19.20;99.90
22742;DHT22;11538;48.884;8.696;2023-07-24T06:00:38;19.30;99.90
22742;DHT22;11538;48.884;8.696;2023-07-24T06:03:05;19.40;99.90
22742;DHT22;11538;48.884;8.696;2023-07-24T06:05:34;19.40;99.90
22742;DHT22;11538;48.884;8.696;2023-07-24T06:08:01;19.50;99.90
22742;DHT22;11538;48.884;8.696;2023-07-24T06:10:28;19.60;99.90
22742;DHT22;11538;48.884;8.696;2023-07-24T06:12:55;19.60;99.90
22742;DHT22;11538;48.884;8.696;2023-07-24T06:15:22;19.70;99.90
22742;DHT22;11538;48.884;8.696;2023-07-24T06:17:48;19.80;99.90
22742;DHT22;11538;48.884;8.696;2023-07-24T06:20:20;19.80;99.90
22742;DHT22;11538;48.884;8.696;2023-07-24T06:22:47;19.90;99.90
22742;DHT22;11538;48.884;8.696;2023-07-24T06:25:13;19.90;99.90
22742;DHT22;11538;48.884;8.696;2023-07-24T06:27:40;19.80;99.90
22742;DHT22;11538;48.884;8.696;2023-07-24T06:30:07;19.90;99.90
22742;DHT22;11538;48.884;8.696;2023-07-24T06:32:42;19.90;99.90
22742;DHT22;11538;48.884;8.696;2023-07-24T06:35:09;19.90;99.90
22742;DHT22;11538;48.884;8.696;2023-07-24T06:37:36;19.90;99.90
22742;DHT22;11538;48.884;8.696;2023-07-24T06:40:03;19.90;99.90
22742;DHT22;11538;48.884;8.696;2023-07-24T06:42:30;19.90;99.90
22742;DHT22;11538;48.884;8.696;2023-07-24T06:44:58;20.00;99.90
22742;DHT22;11538;48.884;8.696;2023-07-24T06:47:24;20.10;99.90
22742;DHT22;11538;48.884;8.696;2023-07-24T06:49:52;20.10;99.90
22742;DHT22;11538;48.884;8.696;2023-07-24T06:52:19;20.20;99.90
22742;DHT22;11538;48.884;8.696;2023-07-24T06:54:45;20.30;99.90
22742;DHT22;11538;48.884;8.696;2023-07-24T06:57:12;20.40;99.90
22742;DHT22;11538;48.884;8.696;2023-07-24T06:59:39;20.50;99.90
22742;DHT22;11538;48.884;8.696;2023-07-24T07:02:06;20.50;99.90
22742;DHT22;11538;48.884;8.696;2023-07-24T07:04:33;20.50;99.90
22742;DHT22;11538;48.884;8.696;2023-07-24T07:06:59;20.60;99.90
22742;DHT22;11538;48.884;8.696;2023-07-24T07:09:26;20.60;99.90
22742;DHT22;11538;48.884;8.696;2023-07-24T07:11:53;20.60;99.90
22742;DHT22;11538;48.884;8.696;2023-07-24T07:14:20;20.70;99.90
22742;DHT22;11538;48.884;8.696;2023-07-24T07:16:47;20.80;99.90
22742;DHT22;11538;48.884;8.696;2023-07-24T07:19:15;20.90;99.90
22742;DHT22;11538;48.884;8.696;2023-07-24T07:21:42;20.90;99.90
22742;DHT22;11538;48.884;8.696;2023-07-24T07:24:09;20.90;99.90
22742;DHT22;11538;48.884;8.696;2023-07-24T07:26:36;21.00;99.90
22742;DHT22;11538;48.884;8.696;2023-07-24T07:29:03;21.00;99.90
22742;DHT22;11538;48.884;8.696;2023-07-24T07:31:29;21.00;99.90
22742;DHT22;11538;48.884;8.696;2023-07-24T07:33:56;21.00;99.90
22742;DHT22;11538;48.884;8.696;2023-07-24T07:36:23;21.10;99.90
22742;DHT22;11538;48.884;8.696;2023-07-24T07:38:50;21.10;99.90
22742;DHT22;11538;48.884;8.696;2023-07-24T07:41:17;21.10;99.90
22742;DHT22;11538;48.884;8.696;2023-07-24T07:43:44;21.10;99.90
22742;DHT22;11538;48.884;8.696;2023-07-24T07:46:10;21.20;99.90
22742;DHT22;11538;48.884;8.696;2023-07-24T07:48:38;21.20;99.90
22742;DHT22;11538;48.884;8.696;2023-07-24T07:51:05;21.20;99.90
22742;DHT22;11538;48.884;8.696;2023-07-24T07:53:31;21.20;99.90
22742;DHT22;11538;48.884;8.696;2023-07-24T07:55:58;21.20;99.90
22742;DHT22;11538;48.884;8.696;2023-07-24T07:58:28;21.20;99.90
22742;DHT22;11538;48.884;8.696;2023-07-24T08:00:55;21.10;99.90
22742;DHT22;11538;48.884;8.696;2023-07-24T08:03:22;21.10;99.90
22742;DHT22;11538;48.884;8.696;2023-07-24T08:05:49;21.00;99.90
22742;DHT22;11538;48.884;8.696;2023-07-24T08:08:16;21.00;99.90
22742;DHT22;11538;48.884;8.696;2023-07-24T08:10:43;21.00;99.90
22742;DHT22;11538;48.884;8.696;2023-07-24T08:13:10;21.00;99.90
22742;DHT22;11538;48.884;8.696;2023-07-24T08:15:37;21.00;99.90
22742;DHT22;11538;48.884;8.696;2023-07-24T08:18:04;21.00;99.90
22742;DHT22;11538;48.884;8.696;2023-07-24T08:20:32;21.00;99.90
22742;DHT22;11538;48.884;8.696;2023-07-24T08:23:02;21.00;99.90
22742;DHT22;11538;48.884;8.696;2023-07-24T08:25:29;21.00;99.90
22742;DHT22;11538;48.884;8.696;2023-07-24T08:27:56;21.10;99.90
22742;DHT22;11538;48.884;8.696;2023-07-24T08:30:32;21.10;99.90
22742;DHT22;11538;48.884;8.696;2023-07-24T08:33:02;21.10;99.90
22742;DHT22;11538;48.884;8.696;2023-07-24T08:35:29;21.20;99.90
22742;DHT22;11538;48.884;8.696;2023-07-24T08:37:56;21.20;99.90
22742;DHT22;11538;48.884;8.696;2023-07-24T08:40:23;21.30;99.90
22742;DHT22;11538;48.884;8.696;2023-07-24T08:42:49;21.30;99.90
22742;DHT22;11538;48.884;8.696;2023-07-24T08:45:17;21.40;99.90
22742;DHT22;11538;48.884;8.696;2023-07-24T08:47:45;21.40;99.90
22742;DHT22;11538;48.884;8.696;2023-07-24T08:50:12;21.50;99.90
22742;DHT22;11538;48.884;8.696;2023-07-24T08:52:39;21.60;99.90
22742;DHT22;11538;48.884;8.696;2023-07-24T08:55:08;21.60;99.90
22742;DHT22;11538;48.884;8.696;2023-07-24T08:57:35;21.70;99.90
22742;DHT22;11538;48.884;8.696;2023-07-24T09:00:02;21.70;99.90
22742;DHT22;11538;48.884;8.696;2023-07-24T09:02:32;21.80;99.90
22742;DHT22;11538;48.884;8.696;2023-07-24T09:05:00;21.90;99.90
22742;DHT22;11538;48.884;8.696;2023-07-24T09:07:28;21.90;99.90
22742;DHT22;11538;48.884;8.696;2023-07-24T09:09:56;22.00;99.90
22742;DHT22;11538;48.884;8.696;2023-07-24T09:12:24;22.10;99.90
22742;DHT22;11538;48.884;8.696;2023-07-24T09:15:01;22.10;99.90
22742;DHT22;11538;48.884;8.696;2023-07-24T09:17:29;22.20;99.90
22742;DHT22;11538;48.884;8.696;2023-07-24T09:19:56;22.30;99.90
22742;DHT22;11538;48.884;8.696;2023-07-24T09:22:24;22.40;99.90
22742;DHT22;11538;48.884;8.696;2023-07-24T09:24:54;22.60;99.90
22742;DHT22;11538;48.884;8.696;2023-07-24T09:27:26;22.60;99.90
22742;DHT22;11538;48.884;8.696;2023-07-24T09:29:57;22.70;99.90
22742;DHT22;11538;48.884;8.696;2023-07-24T09:32:25;22.80;99.90
22742;DHT22;11538;48.884;8.696;2023-07-24T09:34:53;22.90;99.90
22742;DHT22;11538;48.884;8.696;2023-07-24T09:37:23;22.90;99.90
22742;DHT22;11538;48.884;8.696;2023-07-24T09:39:53;23.00;99.90
22742;DHT22;11538;48.884;8.696;2023-07-24T09:42:27;23.00;99.90
22742;DHT22;11538;48.884;8.696;2023-07-24T09:45:02;22.90;99.90
22742;DHT22;11538;48.884;8.696;2023-07-24T09:47:29;22.90;99.90
22742;DHT22;11538;48.884;8.696;2023-07-24T09:50:17;22.90;99.90
22742;DHT22;11538;48.884;8.696;2023-07-24T09:52:44;22.90;99.90
22742;DHT22;11538;48.884;8.696;2023-07-24T09:55:15;22.90;99.90
22742;DHT22;11538;48.884;8.696;2023-07-24T09:57:56;22.90;99.90
22742;DHT22;11538;48.884;8.696;2023-07-24T10:00:25;22.80;99.90
22742;DHT22;11538;48.884;8.696;2023-07-24T10:02:52;22.80;99.90
22742;DHT22;11538;48.884;8.696;2023-07-24T10:05:19;22.80;99.90
22742;DHT22;11538;48.884;8.696;2023-07-24T10:07:46;22.80;99.90
22742;DHT22;11538;48.884;8.696;2023-07-24T10:10:14;22.80;99.90
22742;DHT22;11538;48.884;8.696;2023-07-24T10:12:41;22.80;99.90
22742;DHT22;11538;48.884;8.696;2023-07-24T10:15:08;22.80;99.90
22742;DHT22;11538;48.884;8.696;2023-07-24T10:17:36;22.80;99.90
22742;DHT22;11538;48.884;8.696;2023-07-24T10:20:05;22.70;99.90
22742;DHT22;11538;48.884;8.696;2023-07-24T10:22:40;22.70;99.90
22742;DHT22;11538;48.884;8.696;2023-07-24T10:25:09;22.70;99.90
22742;DHT22;11538;48.884;8.696;2023-07-24T10:27:43;22.60;99.90
22742;DHT22;11538;48.884;8.696;2023-07-24T10:30:13;22.60;99.90
22742;DHT22;11538;48.884;8.696;2023-07-24T10:33:03;22.40;99.90
22742;DHT22;11538;48.884;8.696;2023-07-24T10:36:17;22.30;99.90
22742;DHT22;11538;48.884;8.696;2023-07-24T10:38:35;22.20;99.90
22742;DHT22;11538;48.884;8.696;2023-07-24T10:41:06;22.00;99.90
22742;DHT22;11538;48.884;8.696;2023-07-24T10:43:40;21.90;99.90
22742;DHT22;11538;48.884;8.696;2023-07-24T10:46:10;21.80;99.90
22742;DHT22;11538;48.884;8.696;2023-07-24T10:48:42;21.70;99.90
22742;DHT22;11538;48.884;8.696;2023-07-24T10:51:11;21.60;99.90
22742;DHT22;11538;48.884;8.696;2023-07-24T10:53:42;21.50;99.90
22742;DHT22;11538;48.884;8.696;2023-07-24T10:56:11;21.50;99.90
22742;DHT22;11538;48.884;8.696;2023-07-24T10:58:38;21.40;99.90
22742;DHT22;11538;48.884;8.696;2023-07-24T11:01:06;21.40;99.90
22742;DHT22;11538;48.884;8.696;2023-07-24T11:03:37;21.40;99.90
22742;DHT22;11538;48.884;8.696;2023-07-24T11:06:12;21.40;99.90
22742;DHT22;11538;48.884;8.696;2023-07-24T11:08:40;21.40;99.90
22742;DHT22;11538;48.884;8.696;2023-07-24T11:11:08;21.30;99.90
22742;DHT22;11538;48.884;8.696;2023-07-24T11:13:35;21.40;99.90
22742;DHT22;11538;48.884;8.696;2023-07-24T11:16:05;21.40;99.90
22742;DHT22;11538;48.884;8.696;2023-07-24T11:18:43;21.40;99.90
22742;DHT22;11538;48.884;8.696;2023-07-24T11:21:19;21.40;99.90
22742;DHT22;11538;48.884;8.696;2023-07-24T11:23:48;21.40;99.90
22742;DHT22;11538;48.884;8.696;2023-07-24T11:26:19;21.40;99.90
22742;DHT22;11538;48.884;8.696;2023-07-24T11:28:48;21.50;99.90
22742;DHT22;11538;48.884;8.696;2023-07-24T11:31:18;21.50;99.90
22742;DHT22;11538;48.884;8.696;2023-07-24T11:33:49;21.50;99.90
22742;DHT22;11538;48.884;8.696;2023-07-24T11:36:18;21.70;99.90
22742;DHT22;11538;48.884;8.696;2023-07-24T11:38:45;21.80;99.90
22742;DHT22;11538;48.884;8.696;2023-07-24T11:41:15;21.90;99.90
22742;DHT22;11538;48.884;8.696;2023-07-24T11:43:46;22.00;99.90
22742;DHT22;11538;48.884;8.696;2023-07-24T11:46:24;22.10;99.90
22742;DHT22;11538;48.884;8.696;2023-07-24T11:48:52;22.20;99.90
22742;DHT22;11538;48.884;8.696;2023-07-24T11:51:22;22.20;99.90
22742;DHT22;11538;48.884;8.696;2023-07-24T11:53:51;22.30;99.90
22742;DHT22;11538;48.884;8.696;2023-07-24T11:56:19;22.20;99.90
22742;DHT22;11538;48.884;8.696;2023-07-24T11:58:46;22.20;99.90
22742;DHT22;11538;48.884;8.696;2023-07-24T12:01:13;22.20;99.90
22742;DHT22;11538;48.884;8.696;2023-07-24T12:03:40;22.10;99.90
22742;DHT22;11538;48.884;8.696;2023-07-24T12:06:15;22.10;99.90
22742;DHT22;11538;48.884;8.696;2023-07-24T12:08:43;22.00;99.90
22742;DHT22;11538;48.884;8.696;2023-07-24T12:11:20;22.00;99.90
22742;DHT22;11538;48.884;8.696;2023-07-24T12:13:51;21.90;99.90
22742;DHT22;11538;48.884;8.696;2023-07-24T12:16:20;21.80;99.90
22742;DHT22;11538;48.884;8.696;2023-07-24T12:18:46;21.70;99.90
22742;DHT22;11538;48.884;8.696;2023-07-24T12:21:13;21.70;99.90
22742;DHT22;11538;48.884;8.696;2023-07-24T12:23:40;21.70;99.90
22742;DHT22;11538;48.884;8.696;2023-07-24T12:26:08;21.60;99.90
22742;DHT22;11538;48.884;8.696;2023-07-24T12:28:35;21.50;99.90
22742;DHT22;11538;48.884;8.696;2023-07-24T12:31:01;21.50;99.90
22742;DHT22;11538;48.884;8.696;2023-07-24T12:33:29;21.50;99.90
22742;DHT22;11538;48.884;8.696;2023-07-24T12:35:56;21.50;99.90
22742;DHT22;11538;48.884;8.696;2023-07-24T12:38:22;21.50;99.90
22742;DHT22;11538;48.884;8.696;2023-07-24T12:40:49;21.50;99.90
22742;DHT22;11538;48.884;8.696;2023-07-24T12:43:19;21.50;99.90
22742;DHT22;11538;48.884;8.696;2023-07-24T12:45:45;21.40;99.90
22742;DHT22;11538;48.884;8.696;2023-07-24T12:48:12;21.40;99.90
22742;DHT22;11538;48.884;8.696;2023-07-24T12:50:39;21.40;99.90
22742;DHT22;11538;48.884;8.696;2023-07-24T12:53:06;21.40;99.90
22742;DHT22;11538;48.884;8.696;2023-07-24T12:55:39;21.40;99.90
22742;DHT22;11538;48.884;8.696;2023-07-24T12:58:06;21.50;99.90
22742;DHT22;11538;48.884;8.696;2023-07-24T13:00:33;21.50;99.90
22742;DHT22;11538;48.884;8.696;2023-07-24T13:03:00;21.50;99.90
22742;DHT22;11538;48.884;8.696;2023-07-24T13:05:27;21.50;99.90
22742;DHT22;11538;48.884;8.696;2023-07-24T13:07:54;21.60;99.90
22742;DHT22;11538;48.884;8.696;2023-07-24T13:10:21;21.60;99.90
22742;DHT22;11538;48.884;8.696;2023-07-24T13:12:48;21.70;99.90
22742;DHT22;11538;48.884;8.696;2023-07-24T13:15:15;21.70;99.90
22742;DHT22;11538;48.884;8.696;2023-07-24T13:17:42;21.80;99.90
22742;DHT22;11538;48.884;8.696;2023-07-24T13:20:09;21.80;99.90
22742;DHT22;11538;48.884;8.696;2023-07-24T13:22:36;21.90;99.90
22742;DHT22;11538;48.884;8.696;2023-07-24T13:25:03;21.90;99.90
22742;DHT22;11538;48.884;8.696;2023-07-24T13:27:32;22.00;99.90
22742;DHT22;11538;48.884;8.696;2023-07-24T13:29:59;22.10;99.90
22742;DHT22;11538;48.884;8.696;2023-07-24T13:32:26;22.10;99.90
22742;DHT22;11538;48.884;8.696;2023-07-24T13:34:55;22.20;99.90
22742;DHT22;11538;48.884;8.696;2023-07-24T13:37:23;22.20;99.90
22742;DHT22;11538;48.884;8.696;2023-07-24T13:39:51;22.20;99.90
22742;DHT22;11538;48.884;8.696;2023-07-24T13:42:18;22.30;99.90
22742;DHT22;11538;48.884;8.696;2023-07-24T13:44:45;22.40;99.90
22742;DHT22;11538;48.884;8.696;2023-07-24T13:47:12;22.40;99.90
22742;DHT22;11538;48.884;8.696;2023-07-24T13:49:38;22.70;99.90
22742;DHT22;11538;48.884;8.696;2023-07-24T13:52:05;23.00;99.90
22742;DHT22;11538;48.884;8.696;2023-07-24T13:58:52;23.70;99.90
22742;DHT22;11538;48.884;8.696;2023-07-24T14:01:19;24.50;99.90
22742;DHT22;11538;48.884;8.696;2023-07-24T14:03:46;24.70;99.90
22742;DHT22;11538;48.884;8.696;2023-07-24T14:06:13;24.70;99.90
22742;DHT22;11538;48.884;8.696;2023-07-24T14:08:40;24.60;99.90
22742;DHT22;11538;48.884;8.696;2023-07-24T14:11:07;24.40;99.90
22742;DHT22;11538;48.884;8.696;2023-07-24T14:13:34;24.30;99.90
22742;DHT22;11538;48.884;8.696;2023-07-24T14:16:01;24.20;99.90
22742;DHT22;11538;48.884;8.696;2023-07-24T14:18:28;24.10;99.90
22742;DHT22;11538;48.884;8.696;2023-07-24T14:20:54;23.90;99.90
22742;DHT22;11538;48.884;8.696;2023-07-24T14:23:23;23.90;99.90
22742;DHT22;11538;48.884;8.696;2023-07-24T14:25:49;23.80;99.90
22742;DHT22;11538;48.884;8.696;2023-07-24T14:28:16;23.70;99.90
22742;DHT22;11538;48.884;8.696;2023-07-24T14:30:43;23.60;99.90
22742;DHT22;11538;48.884;8.696;2023-07-24T14:33:10;23.50;99.90
22742;DHT22;11538;48.884;8.696;2023-07-24T14:35:37;23.50;99.90
22742;DHT22;11538;48.884;8.696;2023-07-24T14:38:04;23.60;99.90
22742;DHT22;11538;48.884;8.696;2023-07-24T14:40:31;23.90;99.90
22742;DHT22;11538;48.884;8.696;2023-07-24T14:42:57;24.00;99.90
22742;DHT22;11538;48.884;8.696;2023-07-24T14:45:25;24.20;99.90
22742;DHT22;11538;48.884;8.696;2023-07-24T14:47:52;24.20;99.90
22742;DHT22;11538;48.884;8.696;2023-07-24T14:50:19;24.20;99.90
22742;DHT22;11538;48.884;8.696;2023-07-24T14:52:46;24.20;99.90
22742;DHT22;11538;48.884;8.696;2023-07-24T14:55:13;24.20;99.90
22742;DHT22;11538;48.884;8.696;2023-07-24T14:57:40;24.20;99.90
22742;DHT22;11538;48.884;8.696;2023-07-24T15:00:07;24.20;99.90
22742;DHT22;11538;48.884;8.696;2023-07-24T15:02:35;24.30;99.90
22742;DHT22;11538;48.884;8.696;2023-07-24T15:05:02;24.40;99.90
22742;DHT22;11538;48.884;8.696;2023-07-24T15:07:28;24.50;99.90
22742;DHT22;11538;48.884;8.696;2023-07-24T15:09:55;24.50;99.90
22742;DHT22;11538;48.884;8.696;2023-07-24T15:12:22;24.60;99.90
22742;DHT22;11538;48.884;8.696;2023-07-24T15:14:49;24.60;99.90
22742;DHT22;11538;48.884;8.696;2023-07-24T15:17:16;24.70;99.90
22742;DHT22;11538;48.884;8.696;2023-07-24T15:19:44;24.70;99.90
22742;DHT22;11538;48.884;8.696;2023-07-24T15:22:11;24.70;99.90
22742;DHT22;11538;48.884;8.696;2023-07-24T15:24:39;24.60;99.90
22742;DHT22;11538;48.884;8.696;2023-07-24T15:27:08;24.50;99.90
22742;DHT22;11538;48.884;8.696;2023-07-24T15:29:35;24.40;99.90
22742;DHT22;11538;48.884;8.696;2023-07-24T15:32:03;24.40;99.90
22742;DHT22;11538;48.884;8.696;2023-07-24T15:34:31;24.30;99.90
22742;DHT22;11538;48.884;8.696;2023-07-24T15:36:58;24.20;99.90
22742;DHT22;11538;48.884;8.696;2023-07-24T15:39:25;24.10;99.90
22742;DHT22;11538;48.884;8.696;2023-07-24T15:41:52;24.00;99.90
22742;DHT22;11538;48.884;8.696;2023-07-24T15:44:18;23.90;99.90
22742;DHT22;11538;48.884;8.696;2023-07-24T15:46:45;23.90;99.90